Time;durP1;ratioP1;P1;durP2;ratioP2;P2;SDS_P1;SDS_P2;PMS_P1;PMS_P2;Temp;Humidity;BMP_temperature;BMP_pressure;BME280_temperature;BME280_humidity;BME280_pressure;Samples;Min_cycle;Max_cycle;Signal;HPM_P1;HPM_P2
2022/11/20 00:01:44;;;;;;;27.83;18.50;;;5.20;59.00;;;;;;4992144;28;20437;-75
2022/11/20 00:04:11;;;;;;;32.33;19.20;;;5.10;59.90;;;;;;4996124;28;20398;-74
2022/11/20 00:06:37;;;;;;;33.60;19.15;;;5.00;60.90;;;;;;4995069;28;20392;-74
2022/11/20 00:09:05;;;;;;;26.67;18.30;;;5.10;62.10;;;;;;4992025;28;20914;-74
2022/11/20 00:11:31;;;;;;;28.35;18.20;;;5.10;62.70;;;;;;4989589;28;20463;-75
2022/11/20 00:13:59;;;;;;;24.42;17.10;;;5.00;63.80;;;;;;4982697;28;20397;-74
2022/11/20 00:16:26;;;;;;;26.85;18.02;;;5.00;62.10;;;;;;4991711;28;20863;-74
2022/11/20 00:18:52;;;;;;;27.85;17.95;;;5.10;61.60;;;;;;4991197;28;20406;-74
2022/11/20 00:21:23;;;;;;;28.90;18.48;;;5.00;61.40;;;;;;4991060;28;20457;-74
2022/11/20 00:23:50;;;;;;;28.20;18.33;;;5.10;59.80;;;;;;4990977;28;20508;-75
2022/11/20 00:26:19;;;;;;;30.17;19.10;;;5.10;58.00;;;;;;4989858;28;20416;-76
2022/11/20 00:28:59;;;;;;;28.38;18.33;;;5.10;57.60;;;;;;4991147;28;20467;-75
2022/11/20 00:31:25;;;;;;;29.42;19.13;;;5.30;58.30;;;;;;4991000;28;20976;-75
2022/11/20 00:33:51;;;;;;;31.85;19.63;;;5.30;58.00;;;;;;4991282;28;20390;-74
2022/11/20 00:36:20;;;;;;;29.27;19.15;;;5.30;55.50;;;;;;4991646;28;20748;-74
2022/11/20 00:38:46;;;;;;;29.70;19.33;;;5.20;55.60;;;;;;4991444;28;20857;-75
2022/11/20 00:41:16;;;;;;;30.80;20.20;;;5.10;55.60;;;;;;4996994;28;20406;-73
2022/11/20 00:43:42;;;;;;;32.13;19.23;;;5.20;55.20;;;;;;5000995;28;20978;-74
2022/11/20 00:46:12;;;;;;;30.25;19.42;;;5.30;54.00;;;;;;4995663;28;20400;-75
2022/11/20 00:48:37;;;;;;;31.20;20.20;;;5.20;54.00;;;;;;4991946;28;20785;-75
2022/11/20 00:51:03;;;;;;;30.47;20.10;;;5.20;53.00;;;;;;4991149;28;20394;-73
2022/11/20 00:53:29;;;;;;;30.33;19.80;;;5.20;54.50;;;;;;4990937;28;20398;-75
2022/11/20 00:55:59;;;;;;;31.25;21.02;;;5.30;53.10;;;;;;4991026;28;20752;-75
2022/11/20 00:58:28;;;;;;;29.67;19.23;;;5.20;54.00;;;;;;4991188;28;20381;-75
2022/11/20 01:01:10;;;;;;;32.00;19.73;;;5.70;48.70;;;;;;4990748;28;20389;-75
2022/11/20 01:03:40;;;;;;;34.80;20.40;;;5.50;48.80;;;;;;4990434;28;20448;-74
2022/11/20 01:06:12;;;;;;;32.25;20.63;;;5.50;51.80;;;;;;4994831;28;21010;-75
2022/11/20 01:08:38;;;;;;;31.55;19.77;;;5.30;52.90;;;;;;4995083;28;20876;-75
2022/11/20 01:11:06;;;;;;;31.63;20.27;;;5.20;54.40;;;;;;4997321;28;20401;-76
2022/11/20 01:13:38;;;;;;;32.50;20.95;;;5.30;54.00;;;;;;4999293;28;20403;-75
2022/11/20 01:16:05;;;;;;;28.97;19.50;;;5.30;53.10;;;;;;4995865;28;20449;-74
2022/11/20 01:18:31;;;;;;;34.38;20.77;;;5.60;53.20;;;;;;4998760;28;20383;-75
2022/11/20 01:21:08;;;;;;;31.45;20.42;;;5.50;52.00;;;;;;4997495;28;20404;-74
2022/11/20 01:23:35;;;;;;;31.97;20.37;;;5.30;55.00;;;;;;4995086;28;20419;-74
2022/11/20 01:26:04;;;;;;;32.28;20.55;;;5.10;57.00;;;;;;4994200;28;20383;-75
2022/11/20 01:28:30;;;;;;;33.80;21.60;;;5.00;58.90;;;;;;4994223;28;20393;-75
2022/11/20 01:30:55;;;;;;;33.33;21.20;;;5.00;59.90;;;;;;4993761;28;20389;-74
2022/11/20 01:33:21;;;;;;;33.90;20.95;;;5.20;57.20;;;;;;4992740;28;20506;-75
2022/11/20 01:35:46;;;;;;;34.88;22.05;;;5.20;56.60;;;;;;4992479;28;20412;-74
2022/11/20 01:38:12;;;;;;;31.00;20.45;;;5.10;56.40;;;;;;4994009;28;20386;-73
2022/11/20 01:40:37;;;;;;;31.55;19.95;;;5.00;55.40;;;;;;4992361;28;20386;-74
2022/11/20 01:43:22;;;;;;;29.40;19.33;;;5.00;55.40;;;;;;4993762;28;20791;-76
2022/11/20 01:46:12;;;;;;;30.98;19.55;;;5.10;56.60;;;;;;4995470;28;20472;-75
2022/11/20 01:48:54;;;;;;;27.73;18.83;;;5.20;53.70;;;;;;4995014;28;20434;-75
2022/11/20 01:51:28;;;;;;;28.83;19.10;;;5.10;54.10;;;;;;4994705;28;20495;-75
2022/11/20 01:53:58;;;;;;;32.55;20.25;;;5.30;53.10;;;;;;4995360;28;20490;-74
2022/11/20 01:56:26;;;;;;;30.88;19.80;;;5.50;50.60;;;;;;4995104;28;20383;-76
2022/11/20 01:58:56;;;;;;;29.57;19.00;;;5.60;49.30;;;;;;4994997;28;20385;-75
2022/11/20 02:01:22;;;;;;;30.35;19.05;;;5.40;49.30;;;;;;4994795;28;20496;-77
2022/11/20 02:03:49;;;;;;;32.10;21.00;;;5.30;50.30;;;;;;4993480;28;20430;-75
2022/11/20 02:06:26;;;;;;;30.50;20.08;;;5.20;51.10;;;;;;4995485;28;20410;-76
2022/11/20 02:08:52;;;;;;;30.83;20.02;;;5.00;53.10;;;;;;4995803;28;20394;-76
2022/11/20 02:11:18;;;;;;;33.42;20.00;;;5.10;52.50;;;;;;4994504;28;20445;-76
2022/11/20 02:13:44;;;;;;;30.98;19.83;;;5.10;53.30;;;;;;4994501;28;20454;-76
2022/11/20 02:16:35;;;;;;;32.53;20.45;;;5.00;53.90;;;;;;4993685;28;20386;-76
2022/11/20 02:19:02;;;;;;;31.23;21.25;;;4.80;57.50;;;;;;4993635;28;20424;-74
2022/11/20 02:21:39;;;;;;;33.08;21.83;;;4.70;59.60;;;;;;4994709;28;20899;-76
2022/11/20 02:24:12;;;;;;;34.55;21.60;;;4.70;60.30;;;;;;4994801;28;20750;-75
2022/11/20 02:27:01;;;;;;;33.17;20.67;;;4.60;61.20;;;;;;4994206;28;20390;-75
2022/11/20 02:29:33;;;;;;;33.97;21.65;;;4.70;61.90;;;;;;4994052;28;20409;-76
2022/11/20 02:32:01;;;;;;;37.73;22.53;;;4.90;59.70;;;;;;4993628;28;20429;-75
2022/11/20 02:34:26;;;;;;;37.53;23.33;;;4.80;60.30;;;;;;4994076;28;20396;-76
2022/11/20 02:36:52;;;;;;;39.33;23.80;;;4.80;59.80;;;;;;4994699;28;20479;-74
2022/11/20 02:39:20;;;;;;;39.35;23.65;;;4.90;61.20;;;;;;4994288;28;20387;-75
2022/11/20 02:41:46;;;;;;;37.03;22.42;;;5.10;57.90;;;;;;5004282;22;20440;-74
2022/11/20 02:44:16;;;;;;;37.00;22.55;;;5.30;55.50;;;;;;4973116;28;20891;-75
2022/11/20 02:46:42;;;;;;;40.42;22.73;;;5.30;54.60;;;;;;4971968;28;20699;-74
2022/11/20 02:49:07;;;;;;;37.80;23.55;;;5.30;55.60;;;;;;4974546;28;20483;-75
2022/11/20 02:51:33;;;;;;;37.63;23.67;;;5.20;55.40;;;;;;4974560;28;20452;-75
2022/11/20 02:53:59;;;;;;;38.70;23.40;;;5.10;56.50;;;;;;4973410;28;20801;-75
2022/11/20 02:56:25;;;;;;;38.83;23.33;;;5.10;57.10;;;;;;4973284;28;20447;-74
2022/11/20 02:58:53;;;;;;;38.65;23.58;;;5.10;57.80;;;;;;4973217;28;20392;-74
2022/11/20 03:01:21;;;;;;;38.63;22.38;;;5.10;57.50;;;;;;4972586;28;20398;-74
2022/11/20 03:03:48;;;;;;;38.72;24.27;;;5.20;56.60;;;;;;4972894;28;20393;-74
2022/11/20 03:06:15;;;;;;;43.10;24.17;;;5.20;55.80;;;;;;4974915;28;20395;-74
2022/11/20 03:08:41;;;;;;;37.88;23.20;;;5.10;56.10;;;;;;4976790;28;20400;-73
2022/11/20 03:11:07;;;;;;;35.63;21.98;;;5.10;56.30;;;;;;4975726;28;20508;-75
2022/11/20 03:13:34;;;;;;;38.58;23.20;;;5.00;55.90;;;;;;4973338;28;20395;-74
2022/11/20 03:16:12;;;;;;;39.40;24.23;;;4.90;56.40;;;;;;4972754;28;20443;-74
2022/11/20 03:18:39;;;;;;;42.45;24.58;;;4.90;57.20;;;;;;4972712;28;20445;-74
2022/11/20 03:21:05;;;;;;;40.38;24.00;;;4.80;57.20;;;;;;4971094;28;20487;-74
2022/11/20 03:23:31;;;;;;;40.22;24.15;;;4.80;58.20;;;;;;4972512;28;20396;-75
2022/11/20 03:26:08;;;;;;;39.65;24.20;;;4.70;58.60;;;;;;4972587;28;20385;-74
2022/11/20 03:28:33;;;;;;;41.15;23.83;;;4.80;58.90;;;;;;4971088;28;20435;-75
2022/11/20 03:31:11;;;;;;;41.50;23.60;;;4.80;58.50;;;;;;4972427;28;20388;-74
2022/11/20 03:33:38;;;;;;;41.53;23.95;;;4.80;58.70;;;;;;4970867;28;20424;-74
2022/11/20 03:36:06;;;;;;;41.67;24.13;;;4.60;60.00;;;;;;4971170;28;20734;-74
2022/11/20 03:38:32;;;;;;;44.00;24.73;;;4.60;60.90;;;;;;4971137;28;20745;-75
2022/11/20 03:41:00;;;;;;;40.97;24.85;;;4.70;61.50;;;;;;4972551;28;20901;-75
2022/11/20 03:43:26;;;;;;;38.25;24.20;;;4.60;61.00;;;;;;4972041;28;20412;-75
2022/11/20 03:45:51;;;;;;;39.60;23.85;;;4.70;61.30;;;;;;4972190;28;20392;-75
2022/11/20 03:48:17;;;;;;;41.30;24.77;;;4.70;60.90;;;;;;4972285;28;20392;-75
2022/11/20 03:50:42;;;;;;;40.73;24.40;;;4.70;60.80;;;;;;4972113;28;20467;-76
2022/11/20 03:53:08;;;;;;;43.07;23.83;;;4.80;60.50;;;;;;4972026;28;20416;-76
2022/11/20 03:55:33;;;;;;;40.87;25.13;;;4.80;59.80;;;;;;4971928;28;20407;-75
2022/11/20 03:57:59;;;;;;;40.37;24.47;;;4.80;59.80;;;;;;4971958;28;20403;-75
2022/11/20 04:00:25;;;;;;;36.17;22.60;;;4.90;59.80;;;;;;4971992;28;20928;-76
2022/11/20 04:02:50;;;;;;;37.13;22.83;;;4.90;59.60;;;;;;4971748;28;20426;-76
2022/11/20 04:05:16;;;;;;;37.87;21.87;;;5.00;57.80;;;;;;4972182;28;20400;-75
2022/11/20 04:07:41;;;;;;;41.43;20.30;;;5.10;59.00;;;;;;4971972;28;20392;-76
2022/11/20 04:10:07;;;;;;;30.90;19.63;;;5.60;55.10;;;;;;4971958;28;20402;-75
2022/11/20 04:12:33;;;;;;;33.20;21.50;;;5.60;54.00;;;;;;4971402;28;20498;-75
2022/11/20 04:14:59;;;;;;;31.48;19.60;;;5.30;55.20;;;;;;4971902;28;20387;-75
2022/11/20 04:17:24;;;;;;;33.03;20.10;;;5.50;53.60;;;;;;4971919;28;20473;-75
2022/11/20 04:19:50;;;;;;;29.83;19.47;;;5.50;52.90;;;;;;4970561;28;20900;-75
2022/11/20 04:22:15;;;;;;;28.90;19.17;;;5.50;51.70;;;;;;4971512;28;20454;-75
2022/11/20 04:24:41;;;;;;;31.33;20.57;;;5.20;52.70;;;;;;4971610;28;20403;-75
2022/11/20 04:27:06;;;;;;;29.83;19.80;;;5.10;54.80;;;;;;4971782;28;20388;-75
2022/11/20 04:29:32;;;;;;;32.53;20.43;;;5.00;55.70;;;;;;4971853;28;20404;-74
2022/11/20 04:31:58;;;;;;;32.27;21.30;;;4.80;58.00;;;;;;4971254;28;20411;-74
2022/11/20 04:34:23;;;;;;;34.10;21.60;;;4.80;59.10;;;;;;4971384;28;20399;-74
2022/11/20 04:36:49;;;;;;;33.80;21.63;;;4.70;60.10;;;;;;4971574;28;20761;-76
2022/11/20 04:39:15;;;;;;;38.23;23.83;;;4.60;63.20;;;;;;4973119;28;20678;-74
2022/11/20 04:41:41;;;;;;;40.70;23.88;;;4.40;66.00;;;;;;4975179;28;20412;-76
2022/11/20 04:44:06;;;;;;;38.08;24.30;;;4.30;68.40;;;;;;4974663;28;20399;-75
2022/11/20 04:46:38;;;;;;;38.58;22.85;;;4.60;65.10;;;;;;4975703;28;20479;-75
2022/11/20 04:49:04;;;;;;;41.87;22.93;;;4.60;63.50;;;;;;4975159;28;20477;-75
2022/11/20 04:51:30;;;;;;;33.50;22.00;;;4.40;64.30;;;;;;4974948;28;20411;-75
2022/11/20 04:53:55;;;;;;;38.03;23.35;;;4.40;66.70;;;;;;4975568;28;20410;-75
2022/11/20 04:56:21;;;;;;;37.92;23.33;;;4.30;67.10;;;;;;4974904;28;20450;-75
2022/11/20 04:58:47;;;;;;;39.00;23.40;;;4.30;68.00;;;;;;4975499;28;20737;-77
2022/11/20 05:01:15;;;;;;;36.63;22.63;;;4.40;67.20;;;;;;4974898;28;20396;-75
2022/11/20 05:03:42;;;;;;;37.47;23.38;;;4.30;66.10;;;;;;4990865;28;20909;-75
2022/11/20 05:06:09;;;;;;;39.33;24.50;;;4.30;66.20;;;;;;4995072;28;20432;-75
2022/11/20 05:08:35;;;;;;;38.47;23.85;;;4.10;66.30;;;;;;4978758;28;20422;-72
2022/11/20 05:11:10;;;;;;;41.00;24.50;;;4.20;66.40;;;;;;4974822;28;20419;-74
2022/11/20 05:13:36;;;;;;;39.90;24.83;;;4.20;66.10;;;;;;4973693;28;20400;-75
2022/11/20 05:16:06;;;;;;;40.10;24.40;;;4.20;66.40;;;;;;4978091;28;20388;-74
2022/11/20 05:18:33;;;;;;;40.05;23.98;;;4.30;64.00;;;;;;4977697;28;20384;-74
2022/11/20 05:20:59;;;;;;;37.88;23.30;;;4.30;61.20;;;;;;4975728;28;20392;-74
2022/11/20 05:23:27;;;;;;;38.43;25.27;;;4.20;62.10;;;;;;4974456;28;20399;-76
2022/11/20 05:25:53;;;;;;;41.80;24.73;;;4.10;61.60;;;;;;4973807;28;20388;-74
2022/11/20 05:28:19;;;;;;;43.72;26.27;;;3.90;65.30;;;;;;4975301;28;20400;-74
2022/11/20 05:30:45;;;;;;;37.30;23.47;;;4.00;65.40;;;;;;4976243;28;20757;-75
2022/11/20 05:33:10;;;;;;;37.60;24.80;;;4.10;63.20;;;;;;4975853;28;20416;-74
2022/11/20 05:35:36;;;;;;;41.73;26.20;;;4.00;64.00;;;;;;4975961;28;20392;-76
2022/11/20 05:38:01;;;;;;;40.50;26.40;;;4.10;63.60;;;;;;4973953;28;20443;-75
2022/11/20 05:40:27;;;;;;;41.10;26.23;;;4.00;65.20;;;;;;4975340;28;20402;-75
2022/11/20 05:42:52;;;;;;;42.47;26.13;;;3.90;67.90;;;;;;4974481;28;20436;-74
2022/11/20 05:45:18;;;;;;;37.10;24.77;;;4.10;63.40;;;;;;4974890;28;20518;-74
2022/11/20 05:47:43;;;;;;;41.33;26.23;;;4.40;59.90;;;;;;4975264;28;20789;-75
2022/11/20 05:50:09;;;;;;;42.80;26.55;;;4.20;60.70;;;;;;4973562;28;20897;-75
2022/11/20 05:52:35;;;;;;;39.38;25.95;;;4.10;63.80;;;;;;4974399;28;20404;-75
2022/11/20 05:55:00;;;;;;;41.72;26.40;;;4.30;61.30;;;;;;4975300;28;20966;-74
2022/11/20 05:57:26;;;;;;;44.22;26.40;;;4.30;60.20;;;;;;4976678;28;20781;-74
2022/11/20 05:59:51;;;;;;;42.75;26.92;;;4.10;62.90;;;;;;4979422;28;20380;-74
2022/11/20 06:02:17;;;;;;;39.80;25.13;;;4.00;65.20;;;;;;4979098;28;20384;-75
2022/11/20 06:04:42;;;;;;;43.77;25.40;;;4.10;64.30;;;;;;4976969;28;20438;-74
2022/11/20 06:07:08;;;;;;;38.20;25.23;;;4.20;63.80;;;;;;4976152;28;20939;-76
2022/11/20 06:09:34;;;;;;;46.03;26.00;;;4.20;63.10;;;;;;4976392;28;20765;-76
2022/11/20 06:11:59;;;;;;;40.97;25.93;;;4.20;63.60;;;;;;4974806;28;20500;-76
2022/11/20 06:14:25;;;;;;;40.60;25.87;;;4.20;65.20;;;;;;4977974;28;20420;-75
2022/11/20 06:16:50;;;;;;;38.70;25.00;;;4.40;66.00;;;;;;4979967;28;20412;-74
2022/11/20 06:19:16;;;;;;;40.53;26.00;;;4.80;58.50;;;;;;4983215;28;20927;-73
2022/11/20 06:21:42;;;;;;;39.28;25.40;;;4.70;57.30;;;;;;4980924;28;20415;-75
2022/11/20 06:24:10;;;;;;;44.33;26.60;;;4.50;60.50;;;;;;4984640;28;20556;-75
2022/11/20 06:26:36;;;;;;;46.08;26.42;;;4.50;62.50;;;;;;4983514;28;20422;-75
2022/11/20 06:29:02;;;;;;;50.95;28.90;;;4.50;62.70;;;;;;4979341;28;20404;-75
2022/11/20 06:31:28;;;;;;;45.87;26.63;;;4.40;63.80;;;;;;4974705;28;20412;-75
2022/11/20 06:33:53;;;;;;;43.65;26.50;;;4.30;65.50;;;;;;4974370;28;20519;-73
2022/11/20 06:36:21;;;;;;;46.60;25.90;;;4.30;66.30;;;;;;4974090;28;20794;-74
2022/11/20 06:38:47;;;;;;;43.10;26.25;;;4.40;67.70;;;;;;4973944;28;20388;-74
2022/11/20 06:41:19;;;;;;;41.20;24.93;;;4.40;65.50;;;;;;4973666;28;20395;-74
2022/11/20 06:43:45;;;;;;;38.83;24.70;;;4.60;63.50;;;;;;4973375;28;20396;-75
2022/11/20 06:46:12;;;;;;;38.50;23.52;;;4.70;61.70;;;;;;4974422;28;20727;-75
2022/11/20 06:48:37;;;;;;;39.47;24.65;;;4.60;62.70;;;;;;4973587;28;20852;-75
2022/11/20 06:51:05;;;;;;;41.40;24.23;;;4.60;64.20;;;;;;4974090;28;20400;-76
2022/11/20 06:53:31;;;;;;;40.60;24.80;;;5.00;59.70;;;;;;4973588;28;20408;-74
2022/11/20 06:55:57;;;;;;;41.27;26.33;;;4.80;59.20;;;;;;4972992;28;20817;-76
2022/11/20 06:58:23;;;;;;;42.58;25.40;;;4.60;60.80;;;;;;4973261;28;20446;-75
2022/11/20 07:00:49;;;;;;;40.67;24.73;;;4.50;60.80;;;;;;4973371;28;20468;-75
2022/11/20 07:03:14;;;;;;;38.03;24.20;;;4.40;60.70;;;;;;4973123;28;20403;-76
2022/11/20 07:05:40;;;;;;;38.13;24.80;;;4.40;62.90;;;;;;4973362;28;20415;-75
2022/11/20 07:08:06;;;;;;;39.85;25.13;;;4.50;59.40;;;;;;4973692;28;20474;-75
2022/11/20 07:10:32;;;;;;;41.97;24.73;;;4.20;61.80;;;;;;4973539;28;20881;-75
2022/11/20 07:12:57;;;;;;;40.60;25.48;;;4.20;63.20;;;;;;4972947;28;20432;-75
2022/11/20 07:15:24;;;;;;;41.22;25.50;;;4.00;64.50;;;;;;4973374;28;20580;-74
2022/11/20 07:17:50;;;;;;;42.90;25.20;;;4.00;64.10;;;;;;4973414;28;20900;-75
2022/11/20 07:20:16;;;;;;;48.77;25.40;;;3.90;65.00;;;;;;4972908;28;20475;-74
2022/11/20 07:22:42;;;;;;;38.95;25.17;;;4.00;65.20;;;;;;4972722;28;20396;-73
2022/11/20 07:25:08;;;;;;;43.40;26.23;;;4.20;63.10;;;;;;4973085;28;20418;-75
2022/11/20 07:27:34;;;;;;;51.20;27.58;;;4.10;63.90;;;;;;4973157;28;20547;-75
2022/11/20 07:30:00;;;;;;;50.75;29.70;;;3.80;66.60;;;;;;4972916;28;20451;-76
2022/11/20 07:32:26;;;;;;;45.42;27.30;;;3.60;71.30;;;;;;4972207;28;20419;-76
2022/11/20 07:34:52;;;;;;;46.00;27.27;;;3.60;74.90;;;;;;4973413;28;20396;-74
2022/11/20 07:37:18;;;;;;;44.37;28.93;;;3.70;75.00;;;;;;4972836;28;20388;-75
2022/11/20 07:39:43;;;;;;;42.53;26.27;;;3.80;75.90;;;;;;4972690;28;20475;-75
2022/11/20 07:42:09;;;;;;;48.40;30.40;;;3.80;71.10;;;;;;4972577;28;20468;-76
2022/11/20 07:44:35;;;;;;;45.83;27.97;;;3.60;72.20;;;;;;4971345;28;20399;-76
2022/11/20 07:47:00;;;;;;;48.63;28.00;;;3.40;75.30;;;;;;4972700;28;20778;-76
2022/11/20 07:49:26;;;;;;;46.60;28.75;;;3.30;78.90;;;;;;4971737;28;20396;-76
2022/11/20 07:51:55;;;;;;;51.72;29.95;;;3.30;80.90;;;;;;4971874;28;20404;-75
2022/11/20 07:54:21;;;;;;;47.45;29.80;;;3.40;81.40;;;;;;4972524;28;20388;-74
2022/11/20 07:56:47;;;;;;;46.92;28.73;;;3.40;83.70;;;;;;4972235;28;20388;-74
2022/11/20 07:59:13;;;;;;;47.80;29.25;;;3.50;85.50;;;;;;4972470;28;20395;-76
2022/11/20 08:01:39;;;;;;;43.90;27.63;;;3.70;85.00;;;;;;4972669;28;20392;-76
2022/11/20 08:04:05;;;;;;;44.95;27.05;;;3.90;83.10;;;;;;4972385;28;20399;-75
2022/11/20 08:06:31;;;;;;;40.97;25.20;;;4.30;77.10;;;;;;4972548;28;20396;-75
2022/11/20 08:08:57;;;;;;;45.53;25.60;;;4.40;75.90;;;;;;4972536;28;20404;-75
2022/11/20 08:14:12;;;;;;;37.00;23.98;;;4.50;74.80;;;;;;4974068;28;20405;-75
2022/11/20 08:16:39;;;;;;;41.63;24.38;;;4.60;74.20;;;;;;4976540;28;20903;-75
2022/11/20 08:19:05;;;;;;;40.92;25.10;;;4.70;71.80;;;;;;4976694;28;20392;-75
2022/11/20 08:21:31;;;;;;;36.87;23.30;;;4.80;71.80;;;;;;4976406;28;20439;-75
2022/11/20 08:23:57;;;;;;;34.72;22.90;;;4.90;69.80;;;;;;4977488;28;20423;-75
2022/11/20 08:26:23;;;;;;;34.85;22.70;;;4.90;69.10;;;;;;4975975;28;20407;-76
2022/11/20 08:28:49;;;;;;;51.05;28.05;;;5.00;68.40;;;;;;4976256;28;20396;-75
2022/11/20 08:31:14;;;;;;;36.80;23.50;;;5.10;66.70;;;;;;4976099;28;20481;-75
2022/11/20 08:33:40;;;;;;;35.90;23.10;;;5.40;62.60;;;;;;4976785;28;20404;-77
2022/11/20 08:36:06;;;;;;;34.33;21.87;;;5.60;58.60;;;;;;4976528;28;20387;-75
2022/11/20 08:38:32;;;;;;;39.17;23.90;;;5.50;58.80;;;;;;4976446;28;20447;-74
2022/11/20 08:43:46;;;;;;;34.70;22.27;;;5.50;58.50;;;;;;5022921;22;20435;-74
2022/11/20 08:46:12;;;;;;;35.13;23.13;;;5.40;56.50;;;;;;5013717;28;20749;-74
2022/11/20 08:48:37;;;;;;;35.40;22.08;;;5.50;57.10;;;;;;5014654;28;20408;-74
2022/11/20 08:51:03;;;;;;;34.87;22.60;;;5.60;56.30;;;;;;5014981;28;20818;-76
2022/11/20 08:53:28;;;;;;;38.60;22.40;;;5.80;53.80;;;;;;5015675;28;20416;-76
2022/11/20 08:55:56;;;;;;;36.63;23.80;;;5.70;53.90;;;;;;5016585;28;20487;-76
2022/11/20 08:58:21;;;;;;;33.63;22.15;;;5.60;54.40;;;;;;5020059;28;20412;-75
2022/11/20 09:00:47;;;;;;;28.50;19.60;;;5.50;54.40;;;;;;5028025;28;20458;-74
2022/11/20 09:03:13;;;;;;;30.60;19.30;;;5.50;54.80;;;;;;5026783;28;20436;-76
2022/11/20 09:05:38;;;;;;;31.77;19.77;;;5.50;54.10;;;;;;5022609;28;20384;-76
2022/11/20 09:08:04;;;;;;;32.13;21.48;;;5.60;52.40;;;;;;5015867;28;20451;-76
2022/11/20 09:10:30;;;;;;;29.65;19.55;;;5.60;52.10;;;;;;5015896;28;20388;-75
2022/11/20 09:12:56;;;;;;;33.05;19.60;;;5.80;51.90;;;;;;5014824;28;20440;-76
2022/11/20 09:15:23;;;;;;;29.42;18.02;;;5.90;49.70;;;;;;5014683;28;20739;-77
2022/11/20 09:18:04;;;;;;;30.70;19.42;;;6.10;48.80;;;;;;5015340;28;20403;-76
2022/11/20 09:20:30;;;;;;;31.00;21.27;;;6.20;47.00;;;;;;5015140;28;20385;-76
2022/11/20 09:22:56;;;;;;;32.88;20.88;;;6.40;46.70;;;;;;5015700;28;20789;-76
2022/11/20 09:25:22;;;;;;;31.77;19.97;;;6.50;45.70;;;;;;5015441;28;20482;-76
2022/11/20 09:27:48;;;;;;;32.43;20.47;;;6.50;45.40;;;;;;5014798;28;20397;-77
2022/11/20 09:30:16;;;;;;;35.33;21.55;;;6.60;47.40;;;;;;5015378;28;20392;-78
2022/11/20 09:32:42;;;;;;;37.35;21.75;;;6.50;45.60;;;;;;5016447;28;20455;-77
2022/11/20 09:35:09;;;;;;;32.75;20.90;;;6.60;46.80;;;;;;5016806;28;20403;-76
2022/11/20 09:37:34;;;;;;;36.67;21.42;;;6.50;44.60;;;;;;5015703;28;20380;-76
2022/11/20 09:40:00;;;;;;;34.47;21.83;;;6.40;45.80;;;;;;5017227;28;20434;-75
2022/11/20 09:42:47;;;;;;;33.20;20.80;;;6.40;44.40;;;;;;5031154;28;20404;-77
2022/11/20 09:45:41;;;;;;;30.15;19.45;;;6.40;45.50;;;;;;5030933;28;20400;-75
2022/11/20 09:48:14;;;;;;;33.53;19.90;;;6.50;44.50;;;;;;5016052;28;20869;-76
2022/11/20 09:50:47;;;;;;;32.45;20.73;;;6.60;46.80;;;;;;5014682;28;20478;-76
2022/11/20 09:53:23;;;;;;;37.78;21.70;;;6.60;45.30;;;;;;5014849;28;20405;-76
2022/11/20 09:55:49;;;;;;;33.75;21.10;;;6.60;46.20;;;;;;5014825;28;20428;-76
2022/11/20 09:58:29;;;;;;;32.70;21.30;;;6.80;46.40;;;;;;5015951;28;20389;-77
2022/11/20 10:01:09;;;;;;;33.25;21.40;;;6.80;44.40;;;;;;5016840;28;20385;-76
2022/11/20 10:03:41;;;;;;;37.28;21.75;;;6.80;44.10;;;;;;5019051;28;20393;-75
2022/11/20 10:06:12;;;;;;;36.13;22.92;;;7.10;44.60;;;;;;5047315;28;20440;-74
2022/11/20 10:08:59;;;;;;;35.60;22.63;;;7.40;43.90;;;;;;5037148;28;20397;-76
2022/11/20 10:11:55;;;;;;;31.73;20.42;;;7.40;41.70;;;;;;5032821;28;20393;-76
2022/11/20 10:14:50;;;;;;;37.95;22.77;;;7.40;40.90;;;;;;5015532;28;20388;-77
2022/11/20 10:17:28;;;;;;;34.08;21.50;;;7.30;41.80;;;;;;5008899;28;20417;-77
2022/11/20 10:20:12;;;;;;;35.03;22.27;;;7.30;41.90;;;;;;5015047;28;20389;-76
2022/11/20 10:22:57;;;;;;;36.67;21.85;;;7.20;41.20;;;;;;5014827;28;20420;-76
2022/11/20 10:25:29;;;;;;;36.85;22.08;;;7.10;41.90;;;;;;5030135;28;20408;-76
2022/11/20 10:28:32;;;;;;;32.35;20.27;;;7.10;42.90;;;;;;5014321;28;20388;-76
2022/11/20 10:31:04;;;;;;;33.00;21.15;;;7.10;42.40;;;;;;5014053;28;20443;-76
2022/11/20 10:33:35;;;;;;;32.17;20.65;;;7.10;43.40;;;;;;5014312;28;20415;-76
2022/11/20 10:36:07;;;;;;;37.08;22.30;;;7.10;44.10;;;;;;5014300;28;20382;-76
2022/11/20 10:38:50;;;;;;;33.55;20.67;;;6.90;43.60;;;;;;5016343;28;20668;-77
2022/11/20 10:41:29;;;;;;;38.17;22.00;;;6.90;43.60;;;;;;5015557;28;20423;-76
2022/11/20 10:44:13;;;;;;;33.67;21.48;;;6.90;44.30;;;;;;5013981;28;20409;-76
2022/11/20 10:46:45;;;;;;;33.28;21.20;;;6.90;43.70;;;;;;5030261;28;20389;-76
2022/11/20 10:49:19;;;;;;;34.20;21.67;;;6.90;42.40;;;;;;5015035;28;20428;-76
2022/11/20 10:52:10;;;;;;;34.70;21.67;;;6.80;42.10;;;;;;5014644;28;20641;-77
2022/11/20 10:54:51;;;;;;;38.00;21.83;;;6.70;43.10;;;;;;5030317;28;20869;-76
2022/11/20 10:57:39;;;;;;;38.05;21.65;;;6.60;44.60;;;;;;5015342;28;20431;-77
2022/11/20 11:00:09;;;;;;;37.88;22.13;;;6.70;46.10;;;;;;4994259;28;20387;-76
2022/11/20 11:02:50;;;;;;;38.60;22.80;;;6.90;47.00;;;;;;5015576;28;20377;-77
2022/11/20 11:05:37;;;;;;;40.83;23.90;;;7.00;44.50;;;;;;5018933;28;20392;-77
2022/11/20 11:08:05;;;;;;;37.97;23.20;;;7.20;44.30;;;;;;5034648;28;20401;-75
2022/11/20 11:10:46;;;;;;;38.10;23.10;;;7.30;43.20;;;;;;5034128;28;20392;-76
2022/11/20 11:13:20;;;;;;;44.03;24.75;;;7.50;42.60;;;;;;5019533;28;20408;-77
2022/11/20 11:15:46;;;;;;;42.33;24.33;;;7.60;43.00;;;;;;5021075;28;20457;-77
2022/11/20 11:18:22;;;;;;;39.70;24.10;;;7.70;42.00;;;;;;5034454;28;20886;-77
2022/11/20 11:20:51;;;;;;;39.50;24.50;;;7.60;41.00;;;;;;5019832;28;20381;-75
2022/11/20 11:23:43;;;;;;;40.80;24.58;;;7.50;41.30;;;;;;5019942;28;20393;-75
2022/11/20 11:26:23;;;;;;;37.65;22.40;;;7.50;44.10;;;;;;5017512;28;20396;-77
2022/11/20 11:29:00;;;;;;;38.28;23.52;;;7.70;42.30;;;;;;5018867;28;20384;-76
2022/11/20 11:31:34;;;;;;;38.65;24.30;;;7.70;42.10;;;;;;5012070;28;20762;-75
2022/11/20 11:34:14;;;;;;;39.42;22.48;;;7.50;42.90;;;;;;5014663;28;20412;-77
2022/11/20 11:36:41;;;;;;;38.27;23.63;;;7.30;42.00;;;;;;5014350;28;20392;-78
2022/11/20 11:39:14;;;;;;;38.03;23.08;;;7.30;45.70;;;;;;5013770;28;20385;-77
2022/11/20 11:41:41;;;;;;;32.95;22.25;;;7.20;43.10;;;;;;5013498;28;20927;-76
2022/11/20 11:47:24;;;;;;;36.33;23.27;;;7.30;46.00;;;;;;4992995;28;20437;-76
2022/11/20 11:50:09;;;;;;;35.22;21.65;;;7.40;45.00;;;;;;5011727;28;20462;-78
2022/11/20 11:53:10;;;;;;;39.80;22.37;;;7.30;43.40;;;;;;5022797;28;20404;-76
2022/11/20 11:56:02;;;;;;;33.30;21.35;;;7.10;45.00;;;;;;5023196;28;20929;-76
2022/11/20 11:58:31;;;;;;;33.63;21.40;;;7.10;45.00;;;;;;5020676;28;20525;-77
2022/11/20 12:01:08;;;;;;;35.55;21.95;;;7.20;44.50;;;;;;5029319;28;20406;-76
2022/11/20 12:03:38;;;;;;;33.33;21.55;;;7.40;43.20;;;;;;5029797;28;20387;-75
2022/11/20 12:06:15;;;;;;;34.33;21.27;;;7.40;43.20;;;;;;5015161;28;20392;-76
2022/11/20 12:08:59;;;;;;;38.38;22.48;;;7.40;42.50;;;;;;5015885;28;20384;-77
2022/11/20 12:11:46;;;;;;;38.08;22.40;;;7.50;41.80;;;;;;5011985;28;20527;-77
2022/11/20 12:14:40;;;;;;;39.03;22.48;;;7.50;43.00;;;;;;5012451;28;20416;-74
2022/11/20 12:17:11;;;;;;;38.60;24.08;;;7.60;42.40;;;;;;5013412;28;20421;-78
2022/11/20 12:19:37;;;;;;;35.55;22.35;;;7.50;42.70;;;;;;5012254;28;20423;-78
2022/11/20 12:22:13;;;;;;;36.60;22.83;;;7.50;42.50;;;;;;5012873;28;20392;-76
2022/11/20 12:25:03;;;;;;;39.45;23.50;;;7.50;42.30;;;;;;5013002;28;20391;-78
2022/11/20 12:28:10;;;;;;;36.92;22.35;;;7.50;43.80;;;;;;5014134;28;20389;-77
2022/11/20 12:30:50;;;;;;;35.95;22.80;;;7.60;42.70;;;;;;5015925;28;20431;-75
2022/11/20 12:33:41;;;;;;;39.80;23.53;;;7.60;43.40;;;;;;5018409;28;20456;-78
2022/11/20 12:36:33;;;;;;;42.90;23.70;;;7.90;42.70;;;;;;5022352;28;20401;-77
2022/11/20 12:39:26;;;;;;;41.83;24.13;;;7.80;41.50;;;;;;5012945;28;20385;-82
2022/11/20 12:45:27;;;;;;;43.03;24.00;;;7.80;43.00;;;;;;5013747;28;20409;-76
2022/11/20 12:48:14;;;;;;;39.38;23.90;;;7.90;41.50;;;;;;5014764;28;20404;-76
2022/11/20 12:51:11;;;;;;;40.15;23.90;;;7.80;42.30;;;;;;5026405;28;20436;-76
2022/11/20 12:53:46;;;;;;;36.00;22.90;;;7.80;43.90;;;;;;5028196;28;20487;-76
2022/11/20 12:56:12;;;;;;;40.92;24.50;;;7.90;45.90;;;;;;5012543;28;20393;-77
2022/11/20 12:59:03;;;;;;;45.35;25.98;;;7.80;45.50;;;;;;5016329;28;20746;-77
2022/11/20 13:01:47;;;;;;;44.05;26.05;;;7.60;44.90;;;;;;5016536;28;20384;-77
2022/11/20 13:04:51;;;;;;;40.85;25.25;;;7.40;46.20;;;;;;5016764;28;20389;-76